Terminal Aerodrome Forecast
Issued by NWS Shreveport, LA

Home | Current Version | Previous Version | Text Only | Print | Product List | Glossary On
Versions: 1 2 3 4 5 6 7 8 9 10 11 12 13 14
000
FTUS44 KSHV 181700
TAFSHV
TAF
KSHV 181720Z 1818/1918 02008KT P6SM SCT040
     FM190100 04003KT P6SM SKC
     FM191500 09003KT P6SM SCT040=

USA.gov is the U.S. government's official web portal to all federal, state and local government web resources and services.